sensor_id;sensor_type;location;lat;lon;timestamp;P1;durP1;ratioP1;P2;durP2;ratioP2
16401;SDS011;8310;44.626;11.176;2022-07-01T00:01:21;17.60;;;15.77;;
16401;SDS011;8310;44.626;11.176;2022-07-01T00:03:49;17.90;;;16.17;;
16401;SDS011;8310;44.626;11.176;2022-07-01T00:06:16;18.60;;;16.70;;
16401;SDS011;8310;44.626;11.176;2022-07-01T00:08:44;17.95;;;16.35;;
16401;SDS011;8310;44.626;11.176;2022-07-01T00:11:12;19.20;;;17.17;;
16401;SDS011;8310;44.626;11.176;2022-07-01T00:13:41;18.33;;;16.42;;
16401;SDS011;8310;44.626;11.176;2022-07-01T00:16:09;17.27;;;15.77;;
16401;SDS011;8310;44.626;11.176;2022-07-01T00:18:36;16.33;;;14.65;;
16401;SDS011;8310;44.626;11.176;2022-07-01T00:21:04;18.33;;;16.63;;
16401;SDS011;8310;44.626;11.176;2022-07-01T00:23:32;18.77;;;16.98;;
16401;SDS011;8310;44.626;11.176;2022-07-01T00:25:59;19.23;;;17.42;;
16401;SDS011;8310;44.626;11.176;2022-07-01T00:28:26;20.27;;;18.35;;
16401;SDS011;8310;44.626;11.176;2022-07-01T00:30:55;17.77;;;16.08;;
16401;SDS011;8310;44.626;11.176;2022-07-01T00:33:48;16.23;;;14.73;;
16401;SDS011;8310;44.626;11.176;2022-07-01T00:36:16;13.63;;;12.43;;
16401;SDS011;8310;44.626;11.176;2022-07-01T00:38:44;14.90;;;13.60;;
16401;SDS011;8310;44.626;11.176;2022-07-01T00:41:11;14.88;;;13.57;;
16401;SDS011;8310;44.626;11.176;2022-07-01T00:43:39;15.40;;;13.80;;
16401;SDS011;8310;44.626;11.176;2022-07-01T00:46:08;14.55;;;13.07;;
16401;SDS011;8310;44.626;11.176;2022-07-01T00:48:36;11.40;;;10.43;;
16401;SDS011;8310;44.626;11.176;2022-07-01T00:51:04;11.77;;;10.68;;
16401;SDS011;8310;44.626;11.176;2022-07-01T00:53:32;9.35;;;8.40;;
16401;SDS011;8310;44.626;11.176;2022-07-01T00:56:00;7.72;;;7.05;;
16401;SDS011;8310;44.626;11.176;2022-07-01T00:58:28;7.93;;;7.32;;
16401;SDS011;8310;44.626;11.176;2022-07-01T01:00:56;7.60;;;7.03;;
16401;SDS011;8310;44.626;11.176;2022-07-01T01:03:26;7.85;;;7.18;;
16401;SDS011;8310;44.626;11.176;2022-07-01T01:05:54;8.65;;;7.15;;
16401;SDS011;8310;44.626;11.176;2022-07-01T01:08:22;6.50;;;6.00;;
16401;SDS011;8310;44.626;11.176;2022-07-01T01:10:51;7.88;;;7.18;;
16401;SDS011;8310;44.626;11.176;2022-07-01T01:13:19;8.45;;;7.80;;
16401;SDS011;8310;44.626;11.176;2022-07-01T01:15:46;7.45;;;6.85;;
16401;SDS011;8310;44.626;11.176;2022-07-01T01:18:14;7.38;;;6.53;;
16401;SDS011;8310;44.626;11.176;2022-07-01T01:20:43;4.40;;;3.80;;
16401;SDS011;8310;44.626;11.176;2022-07-01T01:23:10;4.00;;;3.70;;
16401;SDS011;8310;44.626;11.176;2022-07-01T01:25:38;4.20;;;3.80;;
16401;SDS011;8310;44.626;11.176;2022-07-01T01:28:05;2.83;;;2.72;;
16401;SDS011;8310;44.626;11.176;2022-07-01T01:30:33;2.83;;;2.67;;
16401;SDS011;8310;44.626;11.176;2022-07-01T01:33:00;3.10;;;2.90;;
16401;SDS011;8310;44.626;11.176;2022-07-01T01:35:28;2.40;;;2.30;;
16401;SDS011;8310;44.626;11.176;2022-07-01T01:37:58;2.60;;;2.40;;
16401;SDS011;8310;44.626;11.176;2022-07-01T01:40:25;2.10;;;2.00;;
16401;SDS011;8310;44.626;11.176;2022-07-01T01:42:53;2.05;;;1.95;;
16401;SDS011;8310;44.626;11.176;2022-07-01T01:45:20;2.25;;;2.05;;
16401;SDS011;8310;44.626;11.176;2022-07-01T01:47:48;2.00;;;1.90;;
16401;SDS011;8310;44.626;11.176;2022-07-01T01:50:17;2.20;;;2.10;;
16401;SDS011;8310;44.626;11.176;2022-07-01T01:52:48;2.10;;;2.00;;
16401;SDS011;8310;44.626;11.176;2022-07-01T01:55:17;2.35;;;2.13;;
16401;SDS011;8310;44.626;11.176;2022-07-01T01:57:44;2.35;;;2.20;;
16401;SDS011;8310;44.626;11.176;2022-07-01T02:00:12;2.20;;;2.10;;
16401;SDS011;8310;44.626;11.176;2022-07-01T02:02:40;1.88;;;1.77;;
16401;SDS011;8310;44.626;11.176;2022-07-01T02:05:08;2.38;;;2.25;;
16401;SDS011;8310;44.626;11.176;2022-07-01T02:07:38;1.90;;;1.80;;
16401;SDS011;8310;44.626;11.176;2022-07-01T02:10:06;2.03;;;1.92;;
16401;SDS011;8310;44.626;11.176;2022-07-01T02:12:36;2.05;;;1.85;;
16401;SDS011;8310;44.626;11.176;2022-07-01T02:15:03;2.20;;;2.10;;
16401;SDS011;8310;44.626;11.176;2022-07-01T02:17:33;3.20;;;2.08;;
16401;SDS011;8310;44.626;11.176;2022-07-01T02:20:00;2.42;;;2.30;;
16401;SDS011;8310;44.626;11.176;2022-07-01T02:22:28;2.38;;;2.20;;
16401;SDS011;8310;44.626;11.176;2022-07-01T02:24:55;3.17;;;2.35;;
16401;SDS011;8310;44.626;11.176;2022-07-01T02:27:23;2.15;;;2.05;;
16401;SDS011;8310;44.626;11.176;2022-07-01T02:29:52;3.17;;;2.50;;
16401;SDS011;8310;44.626;11.176;2022-07-01T02:32:24;2.38;;;2.17;;
16401;SDS011;8310;44.626;11.176;2022-07-01T02:34:51;2.17;;;2.08;;
16401;SDS011;8310;44.626;11.176;2022-07-01T02:37:20;3.38;;;2.05;;
16401;SDS011;8310;44.626;11.176;2022-07-01T02:39:47;2.67;;;2.47;;
16401;SDS011;8310;44.626;11.176;2022-07-01T02:42:15;4.05;;;3.75;;
16401;SDS011;8310;44.626;11.176;2022-07-01T02:44:54;3.33;;;3.05;;
16401;SDS011;8310;44.626;11.176;2022-07-01T02:47:22;3.90;;;3.60;;
16401;SDS011;8310;44.626;11.176;2022-07-01T02:49:49;3.40;;;3.20;;
16401;SDS011;8310;44.626;11.176;2022-07-01T02:52:22;3.13;;;2.92;;
16401;SDS011;8310;44.626;11.176;2022-07-01T02:54:49;3.33;;;3.03;;
16401;SDS011;8310;44.626;11.176;2022-07-01T02:57:17;3.47;;;3.28;;
16401;SDS011;8310;44.626;11.176;2022-07-01T02:59:44;3.10;;;2.90;;
16401;SDS011;8310;44.626;11.176;2022-07-01T03:02:13;3.20;;;3.00;;
16401;SDS011;8310;44.626;11.176;2022-07-01T03:04:41;3.55;;;2.92;;
16401;SDS011;8310;44.626;11.176;2022-07-01T03:07:09;3.05;;;2.85;;
16401;SDS011;8310;44.626;11.176;2022-07-01T03:09:37;3.00;;;2.80;;
16401;SDS011;8310;44.626;11.176;2022-07-01T03:12:05;3.08;;;2.80;;
16401;SDS011;8310;44.626;11.176;2022-07-01T03:14:49;3.00;;;2.80;;
16401;SDS011;8310;44.626;11.176;2022-07-01T03:17:19;3.03;;;2.83;;
16401;SDS011;8310;44.626;11.176;2022-07-01T03:19:47;2.60;;;2.15;;
16401;SDS011;8310;44.626;11.176;2022-07-01T03:22:16;3.17;;;2.30;;
16401;SDS011;8310;44.626;11.176;2022-07-01T03:24:44;2.95;;;2.65;;
16401;SDS011;8310;44.626;11.176;2022-07-01T03:27:11;2.47;;;2.38;;
16401;SDS011;8310;44.626;11.176;2022-07-01T03:29:40;2.88;;;2.67;;
16401;SDS011;8310;44.626;11.176;2022-07-01T03:32:07;2.40;;;2.20;;
16401;SDS011;8310;44.626;11.176;2022-07-01T03:34:37;2.35;;;2.15;;
16401;SDS011;8310;44.626;11.176;2022-07-01T03:37:06;2.10;;;2.00;;
16401;SDS011;8310;44.626;11.176;2022-07-01T03:39:34;2.47;;;2.28;;
16401;SDS011;8310;44.626;11.176;2022-07-01T03:42:03;3.35;;;2.60;;
16401;SDS011;8310;44.626;11.176;2022-07-01T03:44:31;2.33;;;2.22;;
16401;SDS011;8310;44.626;11.176;2022-07-01T03:46:59;2.42;;;2.22;;
16401;SDS011;8310;44.626;11.176;2022-07-01T03:49:27;2.67;;;2.47;;
16401;SDS011;8310;44.626;11.176;2022-07-01T03:51:56;2.50;;;2.10;;
16401;SDS011;8310;44.626;11.176;2022-07-01T03:54:24;2.33;;;2.13;;
16401;SDS011;8310;44.626;11.176;2022-07-01T03:56:56;2.88;;;2.17;;
16401;SDS011;8310;44.626;11.176;2022-07-01T03:59:24;2.63;;;2.00;;
16401;SDS011;8310;44.626;11.176;2022-07-01T04:01:51;2.38;;;2.28;;
16401;SDS011;8310;44.626;11.176;2022-07-01T04:04:20;2.67;;;2.47;;
16401;SDS011;8310;44.626;11.176;2022-07-01T04:06:49;2.28;;;2.13;;
16401;SDS011;8310;44.626;11.176;2022-07-01T04:09:18;2.38;;;1.88;;
16401;SDS011;8310;44.626;11.176;2022-07-01T04:11:47;2.15;;;2.05;;
16401;SDS011;8310;44.626;11.176;2022-07-01T04:14:15;2.30;;;2.20;;
16401;SDS011;8310;44.626;11.176;2022-07-01T04:16:43;2.05;;;1.95;;
16401;SDS011;8310;44.626;11.176;2022-07-01T04:19:12;2.10;;;2.00;;
16401;SDS011;8310;44.626;11.176;2022-07-01T04:21:45;2.38;;;2.15;;
16401;SDS011;8310;44.626;11.176;2022-07-01T04:24:31;5.47;;;2.22;;
16401;SDS011;8310;44.626;11.176;2022-07-01T04:26:59;2.10;;;2.00;;
16401;SDS011;8310;44.626;11.176;2022-07-01T04:29:26;2.50;;;2.00;;
16401;SDS011;8310;44.626;11.176;2022-07-01T04:31:54;3.53;;;2.10;;
16401;SDS011;8310;44.626;11.176;2022-07-01T04:34:22;2.08;;;1.98;;
16401;SDS011;8310;44.626;11.176;2022-07-01T04:36:49;2.28;;;2.10;;
16401;SDS011;8310;44.626;11.176;2022-07-01T04:39:16;1.95;;;1.85;;
16401;SDS011;8310;44.626;11.176;2022-07-01T04:41:45;3.53;;;1.70;;
16401;SDS011;8310;44.626;11.176;2022-07-01T04:44:28;2.90;;;2.28;;
16401;SDS011;8310;44.626;11.176;2022-07-01T04:46:56;2.20;;;1.98;;
16401;SDS011;8310;44.626;11.176;2022-07-01T04:49:25;2.08;;;1.70;;
16401;SDS011;8310;44.626;11.176;2022-07-01T04:51:53;2.92;;;1.85;;
16401;SDS011;8310;44.626;11.176;2022-07-01T04:54:21;3.80;;;2.45;;
16401;SDS011;8310;44.626;11.176;2022-07-01T04:56:50;2.90;;;2.38;;
16401;SDS011;8310;44.626;11.176;2022-07-01T04:59:18;2.10;;;2.00;;
16401;SDS011;8310;44.626;11.176;2022-07-01T05:01:46;3.13;;;2.00;;
16401;SDS011;8310;44.626;11.176;2022-07-01T05:04:15;2.40;;;2.20;;
16401;SDS011;8310;44.626;11.176;2022-07-01T05:06:44;3.28;;;2.25;;
16401;SDS011;8310;44.626;11.176;2022-07-01T05:09:12;2.40;;;2.00;;
16401;SDS011;8310;44.626;11.176;2022-07-01T05:11:40;2.33;;;1.95;;
16401;SDS011;8310;44.626;11.176;2022-07-01T05:14:09;2.63;;;2.42;;
16401;SDS011;8310;44.626;11.176;2022-07-01T05:16:36;2.40;;;2.20;;
16401;SDS011;8310;44.626;11.176;2022-07-01T05:19:05;2.80;;;2.20;;
16401;SDS011;8310;44.626;11.176;2022-07-01T05:21:49;2.10;;;1.90;;
16401;SDS011;8310;44.626;11.176;2022-07-01T05:24:23;2.70;;;2.50;;
16401;SDS011;8310;44.626;11.176;2022-07-01T05:26:51;2.28;;;2.13;;
16401;SDS011;8310;44.626;11.176;2022-07-01T05:29:20;2.97;;;1.90;;
16401;SDS011;8310;44.626;11.176;2022-07-01T05:31:48;2.10;;;1.90;;
16401;SDS011;8310;44.626;11.176;2022-07-01T05:34:15;4.70;;;3.10;;
16401;SDS011;8310;44.626;11.176;2022-07-01T05:36:43;6.20;;;3.15;;
16401;SDS011;8310;44.626;11.176;2022-07-01T05:39:10;2.50;;;2.30;;
16401;SDS011;8310;44.626;11.176;2022-07-01T05:41:38;2.17;;;1.98;;
16401;SDS011;8310;44.626;11.176;2022-07-01T05:44:06;2.38;;;2.17;;
16401;SDS011;8310;44.626;11.176;2022-07-01T05:46:38;6.07;;;2.67;;
16401;SDS011;8310;44.626;11.176;2022-07-01T05:49:05;3.35;;;2.00;;
16401;SDS011;8310;44.626;11.176;2022-07-01T05:51:34;2.15;;;1.95;;
16401;SDS011;8310;44.626;11.176;2022-07-01T05:54:02;2.42;;;1.75;;
16401;SDS011;8310;44.626;11.176;2022-07-01T05:56:29;2.17;;;1.98;;
16401;SDS011;8310;44.626;11.176;2022-07-01T05:58:57;1.80;;;1.70;;
16401;SDS011;8310;44.626;11.176;2022-07-01T06:01:25;5.78;;;1.60;;
16401;SDS011;8310;44.626;11.176;2022-07-01T06:03:54;9.02;;;2.58;;
16401;SDS011;8310;44.626;11.176;2022-07-01T06:06:21;2.35;;;1.90;;
16401;SDS011;8310;44.626;11.176;2022-07-01T06:08:49;4.15;;;2.17;;
16401;SDS011;8310;44.626;11.176;2022-07-01T06:11:19;3.88;;;2.08;;
16401;SDS011;8310;44.626;11.176;2022-07-01T06:13:47;3.58;;;2.08;;
16401;SDS011;8310;44.626;11.176;2022-07-01T06:16:14;2.22;;;2.05;;
16401;SDS011;8310;44.626;11.176;2022-07-01T06:18:42;2.38;;;2.17;;
16401;SDS011;8310;44.626;11.176;2022-07-01T06:21:11;3.10;;;2.15;;
16401;SDS011;8310;44.626;11.176;2022-07-01T06:23:40;3.10;;;2.20;;
16401;SDS011;8310;44.626;11.176;2022-07-01T06:26:07;3.15;;;2.13;;
16401;SDS011;8310;44.626;11.176;2022-07-01T06:28:35;3.40;;;1.90;;
16401;SDS011;8310;44.626;11.176;2022-07-01T06:31:02;4.85;;;2.47;;
16401;SDS011;8310;44.626;11.176;2022-07-01T06:33:30;3.42;;;2.20;;
16401;SDS011;8310;44.626;11.176;2022-07-01T06:35:57;2.28;;;1.90;;
16401;SDS011;8310;44.626;11.176;2022-07-01T06:38:25;5.30;;;2.40;;
16401;SDS011;8310;44.626;11.176;2022-07-01T06:40:53;5.07;;;2.65;;
16401;SDS011;8310;44.626;11.176;2022-07-01T06:43:37;6.20;;;2.75;;
16401;SDS011;8310;44.626;11.176;2022-07-01T06:46:10;2.75;;;2.55;;
16401;SDS011;8310;44.626;11.176;2022-07-01T06:48:39;2.47;;;2.28;;
16401;SDS011;8310;44.626;11.176;2022-07-01T06:51:06;2.60;;;2.40;;
16401;SDS011;8310;44.626;11.176;2022-07-01T06:53:35;7.53;;;3.40;;
16401;SDS011;8310;44.626;11.176;2022-07-01T06:56:03;5.47;;;2.65;;
16401;SDS011;8310;44.626;11.176;2022-07-01T06:58:31;3.83;;;2.60;;
16401;SDS011;8310;44.626;11.176;2022-07-01T07:00:58;2.50;;;2.33;;
16401;SDS011;8310;44.626;11.176;2022-07-01T07:03:25;2.53;;;2.33;;
16401;SDS011;8310;44.626;11.176;2022-07-01T07:05:53;4.72;;;2.53;;
16401;SDS011;8310;44.626;11.176;2022-07-01T07:08:20;3.88;;;2.60;;
16401;SDS011;8310;44.626;11.176;2022-07-01T07:10:49;2.60;;;2.40;;
16401;SDS011;8310;44.626;11.176;2022-07-01T07:13:22;3.90;;;2.70;;
16401;SDS011;8310;44.626;11.176;2022-07-01T07:15:50;2.65;;;2.45;;
16401;SDS011;8310;44.626;11.176;2022-07-01T07:18:19;2.55;;;2.35;;
16401;SDS011;8310;44.626;11.176;2022-07-01T07:20:47;4.25;;;2.80;;
16401;SDS011;8310;44.626;11.176;2022-07-01T07:23:14;2.80;;;2.60;;
16401;SDS011;8310;44.626;11.176;2022-07-01T07:25:42;3.50;;;2.78;;
16401;SDS011;8310;44.626;11.176;2022-07-01T07:28:11;2.88;;;2.50;;
16401;SDS011;8310;44.626;11.176;2022-07-01T07:30:39;4.25;;;2.30;;
16401;SDS011;8310;44.626;11.176;2022-07-01T07:33:07;2.83;;;2.25;;
16401;SDS011;8310;44.626;11.176;2022-07-01T07:35:35;2.33;;;2.20;;
16401;SDS011;8310;44.626;11.176;2022-07-01T07:38:02;2.97;;;2.08;;
16401;SDS011;8310;44.626;11.176;2022-07-01T07:40:30;1.95;;;1.73;;
16401;SDS011;8310;44.626;11.176;2022-07-01T07:42:58;2.25;;;1.85;;
16401;SDS011;8310;44.626;11.176;2022-07-01T07:45:27;2.22;;;2.10;;
16401;SDS011;8310;44.626;11.176;2022-07-01T07:47:54;2.40;;;1.83;;
16401;SDS011;8310;44.626;11.176;2022-07-01T07:50:22;3.30;;;1.90;;
16401;SDS011;8310;44.626;11.176;2022-07-01T07:52:50;4.15;;;2.30;;
16401;SDS011;8310;44.626;11.176;2022-07-01T07:55:17;2.10;;;2.00;;
16401;SDS011;8310;44.626;11.176;2022-07-01T07:57:45;1.90;;;1.80;;
16401;SDS011;8310;44.626;11.176;2022-07-01T08:00:13;2.33;;;2.00;;
16401;SDS011;8310;44.626;11.176;2022-07-01T08:02:43;2.90;;;2.33;;
16401;SDS011;8310;44.626;11.176;2022-07-01T08:05:11;3.95;;;2.60;;
16401;SDS011;8310;44.626;11.176;2022-07-01T08:07:39;4.55;;;2.17;;
16401;SDS011;8310;44.626;11.176;2022-07-01T08:10:11;5.22;;;2.30;;
16401;SDS011;8310;44.626;11.176;2022-07-01T08:12:39;2.90;;;2.35;;
16401;SDS011;8310;44.626;11.176;2022-07-01T08:15:07;1.85;;;1.58;;
16401;SDS011;8310;44.626;11.176;2022-07-01T08:17:36;2.50;;;1.77;;
16401;SDS011;8310;44.626;11.176;2022-07-01T08:20:06;2.28;;;2.08;;
16401;SDS011;8310;44.626;11.176;2022-07-01T08:22:34;2.88;;;2.10;;
16401;SDS011;8310;44.626;11.176;2022-07-01T08:25:02;3.13;;;2.25;;
16401;SDS011;8310;44.626;11.176;2022-07-01T08:27:30;4.20;;;2.10;;
16401;SDS011;8310;44.626;11.176;2022-07-01T08:29:57;1.75;;;1.65;;
16401;SDS011;8310;44.626;11.176;2022-07-01T08:32:24;3.20;;;2.17;;
16401;SDS011;8310;44.626;11.176;2022-07-01T08:34:53;2.17;;;1.88;;
16401;SDS011;8310;44.626;11.176;2022-07-01T08:37:24;2.00;;;1.88;;
16401;SDS011;8310;44.626;11.176;2022-07-01T08:39:51;2.10;;;2.00;;
16401;SDS011;8310;44.626;11.176;2022-07-01T08:42:19;2.10;;;1.98;;
16401;SDS011;8310;44.626;11.176;2022-07-01T08:44:47;2.72;;;1.90;;
16401;SDS011;8310;44.626;11.176;2022-07-01T08:47:14;2.45;;;1.85;;
16401;SDS011;8310;44.626;11.176;2022-07-01T08:49:42;2.78;;;2.17;;
16401;SDS011;8310;44.626;11.176;2022-07-01T08:52:09;2.65;;;2.30;;
16401;SDS011;8310;44.626;11.176;2022-07-01T08:54:38;2.97;;;2.17;;
16401;SDS011;8310;44.626;11.176;2022-07-01T08:57:06;2.38;;;1.95;;
16401;SDS011;8310;44.626;11.176;2022-07-01T08:59:34;3.50;;;2.40;;
16401;SDS011;8310;44.626;11.176;2022-07-01T09:02:06;55.60;;;7.85;;
16401;SDS011;8310;44.626;11.176;2022-07-01T09:04:33;2.83;;;2.63;;
16401;SDS011;8310;44.626;11.176;2022-07-01T09:07:03;2.60;;;2.50;;
16401;SDS011;8310;44.626;11.176;2022-07-01T09:09:33;4.30;;;2.63;;
16401;SDS011;8310;44.626;11.176;2022-07-01T09:12:05;3.05;;;2.70;;
16401;SDS011;8310;44.626;11.176;2022-07-01T09:14:34;6.32;;;2.60;;
16401;SDS011;8310;44.626;11.176;2022-07-01T09:17:02;3.05;;;2.83;;
16401;SDS011;8310;44.626;11.176;2022-07-01T09:19:32;2.50;;;2.40;;
16401;SDS011;8310;44.626;11.176;2022-07-01T09:22:01;5.63;;;3.03;;
16401;SDS011;8310;44.626;11.176;2022-07-01T09:24:30;3.85;;;3.40;;
16401;SDS011;8310;44.626;11.176;2022-07-01T09:27:00;4.15;;;3.40;;
16401;SDS011;8310;44.626;11.176;2022-07-01T09:29:33;3.88;;;3.58;;
16401;SDS011;8310;44.626;11.176;2022-07-01T09:32:02;4.80;;;3.53;;
16401;SDS011;8310;44.626;11.176;2022-07-01T09:34:34;3.83;;;3.33;;
16401;SDS011;8310;44.626;11.176;2022-07-01T09:37:02;3.70;;;3.20;;
16401;SDS011;8310;44.626;11.176;2022-07-01T09:39:32;3.92;;;3.10;;
16401;SDS011;8310;44.626;11.176;2022-07-01T09:42:08;4.28;;;3.20;;
16401;SDS011;8310;44.626;11.176;2022-07-01T09:44:39;4.05;;;3.53;;
16401;SDS011;8310;44.626;11.176;2022-07-01T09:47:18;5.03;;;4.63;;
16401;SDS011;8310;44.626;11.176;2022-07-01T09:49:49;7.15;;;6.28;;
16401;SDS011;8310;44.626;11.176;2022-07-01T09:52:16;13.13;;;9.95;;
16401;SDS011;8310;44.626;11.176;2022-07-01T09:54:45;15.93;;;11.85;;
16401;SDS011;8310;44.626;11.176;2022-07-01T09:57:14;13.75;;;10.73;;
16401;SDS011;8310;44.626;11.176;2022-07-01T09:59:43;12.93;;;10.10;;
16401;SDS011;8310;44.626;11.176;2022-07-01T10:02:11;10.63;;;9.52;;
16401;SDS011;8310;44.626;11.176;2022-07-01T10:04:39;12.95;;;11.35;;
16401;SDS011;8310;44.626;11.176;2022-07-01T10:07:21;18.88;;;15.80;;
16401;SDS011;8310;44.626;11.176;2022-07-01T10:09:57;19.30;;;14.77;;
16401;SDS011;8310;44.626;11.176;2022-07-01T10:12:35;15.38;;;13.77;;
16401;SDS011;8310;44.626;11.176;2022-07-01T10:15:08;17.55;;;13.00;;
16401;SDS011;8310;44.626;11.176;2022-07-01T10:17:42;9.32;;;8.40;;
16401;SDS011;8310;44.626;11.176;2022-07-01T10:20:12;7.70;;;7.05;;
16401;SDS011;8310;44.626;11.176;2022-07-01T10:22:42;9.13;;;7.20;;
16401;SDS011;8310;44.626;11.176;2022-07-01T10:28:17;9.05;;;6.05;;
16401;SDS011;8310;44.626;11.176;2022-07-01T10:30:57;5.68;;;5.25;;
16401;SDS011;8310;44.626;11.176;2022-07-01T10:33:32;6.18;;;4.85;;
16401;SDS011;8310;44.626;11.176;2022-07-01T10:36:06;5.00;;;4.50;;
16401;SDS011;8310;44.626;11.176;2022-07-01T10:38:35;6.47;;;4.43;;
16401;SDS011;8310;44.626;11.176;2022-07-01T10:41:24;4.25;;;3.95;;
16401;SDS011;8310;44.626;11.176;2022-07-01T10:43:53;6.65;;;4.90;;
16401;SDS011;8310;44.626;11.176;2022-07-01T10:46:38;4.20;;;3.90;;
16401;SDS011;8310;44.626;11.176;2022-07-01T10:49:09;4.35;;;4.05;;
16401;SDS011;8310;44.626;11.176;2022-07-01T10:51:42;4.80;;;4.40;;
16401;SDS011;8310;44.626;11.176;2022-07-01T10:54:12;4.60;;;4.25;;
16401;SDS011;8310;44.626;11.176;2022-07-01T10:56:41;3.78;;;3.58;;
16401;SDS011;8310;44.626;11.176;2022-07-01T10:59:17;4.30;;;3.90;;
16401;SDS011;8310;44.626;11.176;2022-07-01T11:01:45;7.57;;;4.10;;
16401;SDS011;8310;44.626;11.176;2022-07-01T11:04:12;3.72;;;3.50;;
16401;SDS011;8310;44.626;11.176;2022-07-01T11:06:41;4.18;;;3.80;;
16401;SDS011;8310;44.626;11.176;2022-07-01T11:09:08;3.67;;;3.47;;
16401;SDS011;8310;44.626;11.176;2022-07-01T11:11:39;6.10;;;3.35;;
16401;SDS011;8310;44.626;11.176;2022-07-01T11:14:08;3.20;;;2.90;;
16401;SDS011;8310;44.626;11.176;2022-07-01T11:16:36;3.20;;;2.75;;
16401;SDS011;8310;44.626;11.176;2022-07-01T11:19:05;3.45;;;3.15;;
16401;SDS011;8310;44.626;11.176;2022-07-01T11:21:55;3.42;;;3.22;;
16401;SDS011;8310;44.626;11.176;2022-07-01T11:24:23;3.75;;;3.42;;
16401;SDS011;8310;44.626;11.176;2022-07-01T11:26:53;3.42;;;3.22;;
16401;SDS011;8310;44.626;11.176;2022-07-01T11:29:25;3.40;;;3.10;;
16401;SDS011;8310;44.626;11.176;2022-07-01T11:31:54;3.22;;;3.03;;
16401;SDS011;8310;44.626;11.176;2022-07-01T11:34:22;3.45;;;3.25;;
16401;SDS011;8310;44.626;11.176;2022-07-01T11:36:50;3.13;;;3.00;;
16401;SDS011;8310;44.626;11.176;2022-07-01T11:39:48;3.53;;;3.10;;
16401;SDS011;8310;44.626;11.176;2022-07-01T11:42:16;3.75;;;3.45;;
16401;SDS011;8310;44.626;11.176;2022-07-01T11:44:49;3.15;;;2.97;;
16401;SDS011;8310;44.626;11.176;2022-07-01T11:47:22;3.47;;;3.20;;
16401;SDS011;8310;44.626;11.176;2022-07-01T11:49:51;3.53;;;3.33;;
16401;SDS011;8310;44.626;11.176;2022-07-01T11:52:20;4.03;;;3.65;;
16401;SDS011;8310;44.626;11.176;2022-07-01T11:54:48;2.80;;;2.70;;
16401;SDS011;8310;44.626;11.176;2022-07-01T11:57:18;3.67;;;3.38;;
16401;SDS011;8310;44.626;11.176;2022-07-01T11:59:49;3.63;;;3.33;;
16401;SDS011;8310;44.626;11.176;2022-07-01T12:02:19;3.33;;;3.13;;
16401;SDS011;8310;44.626;11.176;2022-07-01T12:04:49;3.83;;;3.53;;
16401;SDS011;8310;44.626;11.176;2022-07-01T12:07:18;4.00;;;3.10;;
16401;SDS011;8310;44.626;11.176;2022-07-01T12:09:47;3.60;;;3.30;;
16401;SDS011;8310;44.626;11.176;2022-07-01T12:12:15;3.42;;;3.20;;
16401;SDS011;8310;44.626;11.176;2022-07-01T12:14:50;3.67;;;3.40;;
16401;SDS011;8310;44.626;11.176;2022-07-01T12:17:19;3.38;;;3.10;;
16401;SDS011;8310;44.626;11.176;2022-07-01T12:19:47;3.33;;;3.00;;
16401;SDS011;8310;44.626;11.176;2022-07-01T12:22:16;2.92;;;2.72;;
16401;SDS011;8310;44.626;11.176;2022-07-01T12:24:45;3.40;;;2.75;;
16401;SDS011;8310;44.626;11.176;2022-07-01T12:27:13;2.92;;;2.72;;
16401;SDS011;8310;44.626;11.176;2022-07-01T12:29:53;3.00;;;2.80;;
16401;SDS011;8310;44.626;11.176;2022-07-01T12:32:21;3.50;;;2.47;;
16401;SDS011;8310;44.626;11.176;2022-07-01T12:34:50;2.78;;;2.58;;
16401;SDS011;8310;44.626;11.176;2022-07-01T12:37:20;3.63;;;3.10;;
16401;SDS011;8310;44.626;11.176;2022-07-01T12:39:53;2.53;;;2.42;;
16401;SDS011;8310;44.626;11.176;2022-07-01T12:42:24;3.13;;;2.50;;
16401;SDS011;8310;44.626;11.176;2022-07-01T12:44:56;3.60;;;2.50;;
16401;SDS011;8310;44.626;11.176;2022-07-01T12:47:32;3.40;;;3.15;;
16401;SDS011;8310;44.626;11.176;2022-07-01T12:50:11;3.20;;;2.75;;
16401;SDS011;8310;44.626;11.176;2022-07-01T12:52:40;3.35;;;3.05;;
16401;SDS011;8310;44.626;11.176;2022-07-01T12:55:15;3.38;;;2.80;;
16401;SDS011;8310;44.626;11.176;2022-07-01T12:57:43;4.38;;;2.63;;
16401;SDS011;8310;44.626;11.176;2022-07-01T13:00:12;2.58;;;2.38;;
16401;SDS011;8310;44.626;11.176;2022-07-01T13:02:42;3.50;;;2.45;;
16401;SDS011;8310;44.626;11.176;2022-07-01T13:05:10;3.58;;;3.38;;
16401;SDS011;8310;44.626;11.176;2022-07-01T13:07:38;3.28;;;2.63;;
16401;SDS011;8310;44.626;11.176;2022-07-01T13:10:06;2.90;;;2.70;;
16401;SDS011;8310;44.626;11.176;2022-07-01T13:12:34;2.67;;;2.47;;
16401;SDS011;8310;44.626;11.176;2022-07-01T13:15:01;3.10;;;2.80;;
16401;SDS011;8310;44.626;11.176;2022-07-01T13:17:31;2.70;;;2.45;;
16401;SDS011;8310;44.626;11.176;2022-07-01T13:19:58;2.47;;;2.28;;
16401;SDS011;8310;44.626;11.176;2022-07-01T13:22:26;3.10;;;2.90;;
16401;SDS011;8310;44.626;11.176;2022-07-01T13:24:53;2.75;;;2.55;;
16401;SDS011;8310;44.626;11.176;2022-07-01T13:27:21;3.00;;;2.70;;
16401;SDS011;8310;44.626;11.176;2022-07-01T13:29:49;4.10;;;2.67;;
16401;SDS011;8310;44.626;11.176;2022-07-01T13:32:16;3.25;;;2.40;;
16401;SDS011;8310;44.626;11.176;2022-07-01T13:34:45;7.43;;;3.42;;
16401;SDS011;8310;44.626;11.176;2022-07-01T13:37:13;3.00;;;2.60;;
16401;SDS011;8310;44.626;11.176;2022-07-01T13:39:41;3.97;;;2.80;;
16401;SDS011;8310;44.626;11.176;2022-07-01T13:42:08;2.75;;;2.60;;
16401;SDS011;8310;44.626;11.176;2022-07-01T13:44:36;4.20;;;3.30;;
16401;SDS011;8310;44.626;11.176;2022-07-01T13:47:04;2.90;;;2.70;;
16401;SDS011;8310;44.626;11.176;2022-07-01T13:49:34;2.60;;;2.50;;
16401;SDS011;8310;44.626;11.176;2022-07-01T13:52:03;2.80;;;2.60;;
16401;SDS011;8310;44.626;11.176;2022-07-01T13:54:32;3.17;;;2.78;;
16401;SDS011;8310;44.626;11.176;2022-07-01T13:57:00;3.80;;;2.95;;
16401;SDS011;8310;44.626;11.176;2022-07-01T13:59:28;2.42;;;2.33;;
16401;SDS011;8310;44.626;11.176;2022-07-01T14:01:55;3.33;;;2.67;;
16401;SDS011;8310;44.626;11.176;2022-07-01T14:04:24;3.22;;;2.83;;
16401;SDS011;8310;44.626;11.176;2022-07-01T14:06:52;2.65;;;2.50;;
16401;SDS011;8310;44.626;11.176;2022-07-01T14:09:21;2.78;;;2.58;;
16401;SDS011;8310;44.626;11.176;2022-07-01T14:11:48;2.72;;;2.53;;
16401;SDS011;8310;44.626;11.176;2022-07-01T14:14:16;3.35;;;2.92;;
16401;SDS011;8310;44.626;11.176;2022-07-01T14:16:44;2.53;;;2.40;;
16401;SDS011;8310;44.626;11.176;2022-07-01T14:19:11;2.67;;;2.58;;
16401;SDS011;8310;44.626;11.176;2022-07-01T14:21:39;2.80;;;2.60;;
16401;SDS011;8310;44.626;11.176;2022-07-01T14:24:06;3.25;;;2.67;;
16401;SDS011;8310;44.626;11.176;2022-07-01T14:26:35;4.50;;;2.67;;
16401;SDS011;8310;44.626;11.176;2022-07-01T14:29:02;3.35;;;3.10;;
16401;SDS011;8310;44.626;11.176;2022-07-01T14:31:29;3.20;;;2.90;;
16401;SDS011;8310;44.626;11.176;2022-07-01T14:33:57;3.03;;;2.80;;
16401;SDS011;8310;44.626;11.176;2022-07-01T14:36:24;3.00;;;2.80;;
16401;SDS011;8310;44.626;11.176;2022-07-01T14:38:52;3.05;;;2.78;;
16401;SDS011;8310;44.626;11.176;2022-07-01T14:41:19;2.85;;;2.65;;
16401;SDS011;8310;44.626;11.176;2022-07-01T14:43:48;3.47;;;2.60;;
16401;SDS011;8310;44.626;11.176;2022-07-01T14:46:15;2.70;;;2.50;;
16401;SDS011;8310;44.626;11.176;2022-07-01T14:48:42;3.03;;;2.78;;
16401;SDS011;8310;44.626;11.176;2022-07-01T14:51:13;5.95;;;2.85;;
16401;SDS011;8310;44.626;11.176;2022-07-01T14:53:40;2.90;;;2.70;;
16401;SDS011;8310;44.626;11.176;2022-07-01T14:56:08;3.35;;;3.10;;
16401;SDS011;8310;44.626;11.176;2022-07-01T14:58:35;3.50;;;2.40;;
16401;SDS011;8310;44.626;11.176;2022-07-01T15:01:05;2.38;;;2.28;;